Flight Track Log - Related Links

Times and Time Zones

All times are in EDT time to prevent confusion due to time zone crossing. See the CSN6490 flight status page for this flight to view local times or setup timezone preferences in your user account.

Time Position Orientation Groundspeed Altitude Reporting Facility
EDT Latitude Longitude Course Direction KTS MPH feet Rate Location/Type
Sat 09:16:46 PM 36.2465 120.3805 166° South 165 190 1,000  Level FlightAware ADS-B (ZSQD / TAO)
Sat 09:17:01 PM 36.2352 120.3839 166° South 165 190 1,700 2,200 Climbing FlightAware ADS-B (ZSQD / TAO)
Sat 09:17:16 PM 36.2238 120.3875 166° South 182 209 2,100 1,400 Climbing FlightAware ADS-B (ZSQD / TAO)
Sat 09:17:31 PM 36.2135 120.3906 166° South 206 237 2,400 1,200 Climbing FlightAware ADS-B (ZSQD / TAO)
Sat 09:17:46 PM 36.1954 120.3961 166° South 231 266 2,700 1,500 Climbing FlightAware ADS-B (ZSQD / TAO)
Sat 09:17:59 PM 36.1812 120.4005 166° South 252 290 3,100 2,483 Climbing FlightAware ADS-B (ZSQD / TAO)
Sat 09:18:15 PM 36.1630 120.4062 165° South 261 300 3,900 2,813 Climbing FlightAware ADS-B (ZSQD / TAO)
Sat 09:18:31 PM 36.1422 120.4126 165° South 276 318 4,600 2,903 Climbing FlightAware ADS-B (ZSQD / TAO)
Sat 09:18:46 PM 36.1241 120.4182 165° South 280 322 5,400 3,200 Climbing FlightAware ADS-B (ZSQD / TAO)
Sat 09:19:01 PM 36.1048 120.4244 163° South 281 323 6,200 2,229 Climbing FlightAware ADS-B (ZSQD / TAO)
Sat 09:19:21 PM 36.0805 120.4368 155° Southeast 283 326 6,700 720 Climbing FlightAware ADS-B (ZSQD / TAO)
Sat 09:19:51 PM 36.0480 120.4559 154° Southeast 285 328 6,800 955 Climbing FlightAware ADS-B (ZSQD / TAO)
Sat 09:20:05 PM 36.0277 120.4679 154° Southeast 291 335 7,400 3,000 Climbing FlightAware ADS-B (ZSQD / TAO)
Sat 09:20:25 PM 36.0037 120.4821 154° Southeast 291 335 8,500 2,919 Climbing FlightAware ADS-B (ZSQD / TAO)
Sat 09:20:42 PM 35.9844 120.4935 154° Southeast 290 334 9,200 2,063 Climbing FlightAware ADS-B (ZSQD / TAO)
Sat 09:20:57 PM 35.9654 120.5047 154° Southeast 290 334 9,600 1,034 Climbing FlightAware ADS-B (ZSQD / TAO)
Sat 09:21:11 PM 35.9474 120.5153 154° Southeast 292 336 9,700 621 Climbing FlightAware ADS-B (ZSQD / TAO)
Sat 09:21:26 PM 35.9289 120.5261 154° Southeast 290 334 9,900 1,304 Climbing FlightAware ADS-B (ZSQD / TAO)
Sat 09:21:57 PM 35.8903 120.5483 155° Southeast 322 371 10,700 1,400 Climbing FlightAware ADS-B (ZSQD / TAO)
Sat 09:22:26 PM 35.8473 120.5731 154° Southeast 360 414 11,300 1,300 Climbing FlightAware ADS-B (ZSQD / TAO)
Sat 09:22:57 PM 35.7998 120.6007 154° Southeast 387 445 12,000 1,800 Climbing FlightAware ADS-B (ZSQD / TAO)
Sat 09:23:26 PM 35.7501 120.6296 154° Southeast 400 460 13,100 2,486 Climbing FlightAware ADS-B (ZSQD / TAO)
Sat 09:24:07 PM 35.6828 120.6687 154° Southeast 407 468 14,900 2,229 Climbing FlightAware ADS-B (ZSQD / TAO)
Sat 09:24:36 PM 35.6305 120.6990 154° Southeast 417 480 15,700 1,714 Climbing FlightAware ADS-B (ZSQD / TAO)
Sat 09:25:17 PM 35.5684 120.7348 154° Southeast 420 483 16,900 1,714 Climbing FlightAware ADS-B (ZSQD / TAO)
Sat 09:25:46 PM 35.5235 120.7607 154° Southeast 426 490 17,700 1,655 Climbing FlightAware ADS-B (ZSQD / TAO)
Sat 09:28:00 PM 35.3310 120.7480 183° South  Level Estimated
Sat 09:29:00 PM 35.2448 120.7423 183° South  Level Estimated
Sat 09:30:00 PM 35.1586 120.7367 183° South  Level Estimated
Sat 09:31:00 PM 35.0724 120.7310 183° South  Level Estimated
Sat 09:32:00 PM 34.9862 120.7254 183° South  Level Estimated
Sat 09:33:00 PM 34.9000 120.7198 183° South  Level Estimated
Sat 09:34:00 PM 34.8138 120.7142 183° South  Level Estimated
Sat 09:35:00 PM 34.7276 120.7086 183° South  Level Estimated
Sat 09:36:00 PM 34.6413 120.7030 183° South  Level Estimated
Sat 09:37:00 PM 34.5551 120.6974 183° South  Level Estimated
Sat 09:38:00 PM 34.4689 120.6919 183° South  Level Estimated
Sat 09:39:00 PM 34.3827 120.6863 183° South  Level Estimated
Sat 09:40:00 PM 34.2965 120.6808 183° South  Level Estimated
Sat 09:41:00 PM 34.2103 120.6753 183° South  Level Estimated
Sat 09:42:00 PM 34.1241 120.6698 183° South  Level Estimated
Sat 09:43:00 PM 34.0378 120.6643 183° South  Level Estimated
Sat 09:44:00 PM 33.9516 120.6588 183° South  Level Estimated
Sat 09:45:00 PM 33.8654 120.6533 183° South  Level Estimated
Sat 09:46:00 PM 33.7792 120.6479 183° South  Level Estimated
Sat 09:47:00 PM 33.6930 120.6424 183° South  Level Estimated
Sat 09:48:00 PM 33.6068 120.6370 183° South  Level Estimated
Sat 09:49:00 PM 33.5206 120.6315 183° South  Level Estimated
Sat 09:50:00 PM 33.4344 120.6261 183° South  Level Estimated
Sat 09:51:00 PM 33.3481 120.6207 183° South  Level Estimated
Sat 09:52:00 PM 33.2619 120.6153 183° South  Level Estimated
Sat 09:53:00 PM 33.1757 120.6099 183° South  Level Estimated
Sat 09:54:00 PM 33.0895 120.6045 183° South  Level Estimated
Sat 09:55:00 PM 33.0033 120.5992 183° South  Level Estimated
Sat 09:56:00 PM 32.9171 120.5938 183° South  Level Estimated
Sat 09:57:00 PM 32.8308 120.5884 183° South  Level Estimated
Sat 09:58:00 PM 32.7446 120.5831 183° South  Level Estimated
Sat 09:59:00 PM 32.6584 120.5778 183° South  Level Estimated
Sat 10:00:00 PM 32.5722 120.5725 183° South  Level Estimated
Sat 10:01:00 PM 32.4860 120.5672 183° South  Level Estimated
Sat 10:02:00 PM 32.3998 120.5619 183° South  Level Estimated
Sat 10:03:00 PM 32.3135 120.5566 183° South  Level Estimated
Sat 10:04:00 PM 32.2273 120.5513 183° South  Level Estimated
Sat 10:05:00 PM 32.1411 120.5460 183° South  Level Estimated
Sat 10:06:00 PM 32.0549 120.5408 183° South  Level Estimated
Sat 10:07:00 PM 31.9687 120.5355 183° South  Level Estimated
Sat 10:08:00 PM 31.8825 120.5303 183° South  Level Estimated
Sat 10:09:00 PM 31.7962 120.5251 183° South  Level Estimated
Sat 10:10:00 PM 31.7100 120.5199 183° South  Level Estimated
Sat 10:11:00 PM 31.6238 120.5146 183° South  Level Estimated
Sat 10:12:00 PM 31.5376 120.5095 183° South  Level Estimated
Sat 10:13:00 PM 31.4514 120.5043 183° South  Level Estimated
Sat 10:14:00 PM 31.3651 120.4991 183° South  Level Estimated
Sat 10:15:00 PM 31.2789 120.4939 183° South  Level Estimated
Sat 10:16:00 PM 31.1927 120.4887 183° South  Level Estimated
Sat 10:17:00 PM 31.1065 120.4836 183° South  Level Estimated
Sat 10:18:00 PM 31.0203 120.4785 183° South  Level Estimated
Sat 10:19:00 PM 30.9340 120.4733 183° South  Level Estimated
Sat 10:20:00 PM 30.8478 120.4682 183° South  Level Estimated
Sat 10:21:00 PM 30.7616 120.4631 183° South  Level Estimated
Sat 10:22:00 PM 30.6754 120.4580 183° South  Level Estimated
Sat 10:23:00 PM 30.5891 120.4529 183° South  Level Estimated
Sat 10:24:00 PM 30.5029 120.4478 183° South  Level Estimated
Sat 10:25:00 PM 30.4167 120.4427 183° South  Level Estimated
Sat 10:26:00 PM 30.3305 120.4377 183° South  Level Estimated
Sat 10:27:00 PM 30.2443 120.4326 183° South  Level Estimated
Sat 10:28:00 PM 30.2283 120.4317 183° South  Level Estimated
Sat 10:29:00 PM 30.2283 120.4317 North  Level Estimated
Sat 10:30:00 PM 30.2283 120.4317 North  Level Estimated
Sat 10:31:00 PM 30.2283 120.4317 North  Level Estimated
Sat 10:32:00 PM 30.2283 120.4317 North  Level Estimated
Sat 10:33:00 PM 30.2283 120.4317 North  Level Estimated
Sat 10:34:00 PM 30.2283 120.4317 North  Level Estimated
Sat 10:35:00 PM 30.2283 120.4317 North  Level Estimated
Sat 10:36:00 PM 30.2283 120.4317 North  Level Estimated
Sat 10:37:00 PM 30.2283 120.4317 North  Level Estimated
Sat 10:38:00 PM 30.2283 120.4317 North  Level Estimated
Sat 10:39:00 PM 30.2283 120.4317 North  Level Estimated
Sat 10:40:00 PM 30.2283 120.4317 North  Level Estimated
Sat 10:41:00 PM 30.2283 120.4317 North  Level Estimated
Sat 10:42:00 PM 30.2283 120.4317 North  Level Estimated

Login

Don't have an account? Register now (free) for customized features, flight alerts, and more!